Terminal Aerodrome Forecast
Issued by NWS

Current Version | Previous Version | Text Only | Print | Product List | Glossary On
Versions: 1 2 3 4 5 6 7 8 9 10 11 12 13 14 15 16 17 18 19 20 21 22
000
FTUS41 KGYX 281127 AAA
TAFRKD
TAF AMD
KRKD 281127Z 2811/2912 23009G16KT 6SM HZ OVC005
     FM281400 22010KT 6SM HZ SCT005 SCT050
     FM281800 23009G16KT 4SM HZ OVC050
      TEMPO 2820/2821 4SM -TSRA BKN050CB
     FM290200 29006KT P6SM SCT120
      AMD LTD TO CLD VIS AND WIND=

USA.gov is the U.S. government's official web portal to all federal, state and local government web resources and services.